Time;durP1;ratioP1;P1;durP2;ratioP2;P2;SDS_P1;SDS_P2;PMS_P1;PMS_P2;Temp;Humidity;BMP_temperature;BMP_pressure;BME280_temperature;BME280_humidity;BME280_pressure;Samples;Min_cycle;Max_cycle;Signal;HPM_P1;HPM_P2
2021/01/14 00:00:43;;;;;;;1.73;1.63;;;5.90;99.90;;;;;;5072544;28;20417;-57
2021/01/14 00:03:11;;;;;;;2.30;1.57;;;5.90;99.90;;;;;;5072806;28;20162;-55
2021/01/14 00:05:38;;;;;;;1.20;1.10;;;5.80;99.90;;;;;;5071359;28;20174;-57
2021/01/14 00:08:05;;;;;;;1.30;1.00;;;5.70;99.90;;;;;;5072635;28;20396;-56
2021/01/14 00:10:31;;;;;;;0.93;0.80;;;5.50;99.90;;;;;;5072802;28;20842;-57
2021/01/14 00:12:56;;;;;;;1.73;1.63;;;5.50;99.90;;;;;;5072727;28;20397;-54
2021/01/14 00:15:22;;;;;;;1.50;1.40;;;5.30;99.90;;;;;;5072462;28;20288;-57
2021/01/14 00:17:48;;;;;;;1.63;1.20;;;5.30;99.90;;;;;;5072672;28;20209;-56
2021/01/14 00:20:16;;;;;;;1.33;1.23;;;5.40;99.90;;;;;;5072759;28;20213;-55
2021/01/14 00:22:42;;;;;;;1.10;1.00;;;5.50;99.90;;;;;;5067200;28;20609;-58
2021/01/14 00:25:10;;;;;;;2.00;1.83;;;5.50;99.90;;;;;;5052883;28;20409;-54
2021/01/14 00:27:36;;;;;;;2.20;1.70;;;5.40;99.90;;;;;;5052332;28;20409;-55
2021/01/14 00:30:04;;;;;;;1.50;1.40;;;5.40;99.90;;;;;;5052265;28;20940;-54
2021/01/14 00:32:30;;;;;;;1.17;1.10;;;5.20;99.90;;;;;;5052301;28;20265;-54
2021/01/14 00:34:55;;;;;;;1.40;1.30;;;5.30;99.90;;;;;;5052738;28;20449;-55
2021/01/14 00:40:06;;;;;;;2.33;1.50;;;5.50;99.90;;;;;;5052690;28;20193;-55
2021/01/14 00:42:31;;;;;;;1.80;1.70;;;5.40;99.90;;;;;;5052452;28;20493;-54
2021/01/14 00:44:57;;;;;;;1.67;1.30;;;5.50;99.90;;;;;;5052403;28;20459;-55
2021/01/14 00:47:22;;;;;;;1.70;1.60;;;5.50;99.90;;;;;;5053260;28;20175;-57
2021/01/14 00:49:48;;;;;;;1.50;1.40;;;5.50;99.90;;;;;;5052844;28;20201;-56
2021/01/14 00:52:13;;;;;;;1.80;1.63;;;5.50;99.90;;;;;;5053385;28;20649;-56
2021/01/14 00:54:39;;;;;;;1.50;1.20;;;5.60;99.90;;;;;;5052743;28;20769;-55
2021/01/14 00:57:08;;;;;;;1.57;1.47;;;5.70;99.90;;;;;;5070920;28;20194;-56
2021/01/14 00:59:35;;;;;;;2.97;2.67;;;5.70;99.90;;;;;;5072576;28;20339;-55
2021/01/14 01:02:01;;;;;;;2.20;2.00;;;5.70;99.90;;;;;;5071908;28;20401;-54
2021/01/14 01:04:26;;;;;;;2.73;2.50;;;5.70;99.90;;;;;;5073546;28;20407;-57
2021/01/14 01:06:52;;;;;;;2.93;2.67;;;5.70;99.90;;;;;;5072999;28;20186;-57
2021/01/14 01:09:20;;;;;;;3.00;2.80;;;5.70;99.90;;;;;;5061133;28;20167;-58
2021/01/14 01:11:46;;;;;;;3.20;2.97;;;5.70;99.90;;;;;;5058810;28;20191;-56
2021/01/14 01:14:11;;;;;;;3.53;3.20;;;5.50;99.90;;;;;;5059288;28;20929;-55
2021/01/14 01:16:37;;;;;;;2.97;2.67;;;5.50;99.90;;;;;;5059420;28;20266;-56
2021/01/14 01:19:02;;;;;;;3.70;3.40;;;5.40;99.90;;;;;;5059805;28;20691;-58
2021/01/14 01:21:28;;;;;;;2.87;2.67;;;5.40;99.90;;;;;;5047915;28;20284;-55
2021/01/14 01:23:53;;;;;;;3.10;2.80;;;5.40;99.90;;;;;;5038635;28;20169;-55
2021/01/14 01:26:19;;;;;;;3.90;3.60;;;5.40;99.90;;;;;;5038229;28;20225;-56
2021/01/14 01:28:46;;;;;;;3.27;3.00;;;5.40;99.90;;;;;;5038903;28;20544;-55
2021/01/14 01:31:13;;;;;;;3.50;3.20;;;5.30;99.90;;;;;;5038544;28;20989;-57
2021/01/14 01:33:39;;;;;;;4.20;3.50;;;5.50;99.90;;;;;;5037960;28;20445;-56
2021/01/14 01:36:06;;;;;;;4.23;3.83;;;5.50;99.90;;;;;;5037004;28;20540;-57
2021/01/14 01:38:32;;;;;;;4.70;4.30;;;5.50;99.90;;;;;;5036544;28;20417;-53
2021/01/14 01:40:59;;;;;;;3.87;3.57;;;5.50;99.90;;;;;;5036570;28;20414;-56
2021/01/14 01:43:25;;;;;;;3.83;3.53;;;5.40;99.90;;;;;;5036969;28;20166;-56
2021/01/14 01:45:52;;;;;;;4.33;3.93;;;5.30;99.90;;;;;;5038483;28;20399;-56
2021/01/14 01:48:19;;;;;;;3.73;3.37;;;5.40;99.90;;;;;;5038994;28;20417;-57
2021/01/14 01:50:45;;;;;;;3.90;3.50;;;5.40;99.90;;;;;;5048218;28;20468;-55
2021/01/14 01:53:11;;;;;;;3.50;3.20;;;5.40;99.90;;;;;;5038568;28;20410;-54
2021/01/14 01:55:38;;;;;;;3.43;3.13;;;5.50;99.90;;;;;;5037988;28;20410;-57
2021/01/14 01:58:07;;;;;;;3.63;3.00;;;5.50;99.90;;;;;;5054242;28;20513;-56
2021/01/14 02:00:32;;;;;;;3.57;3.27;;;5.50;99.90;;;;;;5079989;28;20416;-57
2021/01/14 02:02:58;;;;;;;3.60;3.30;;;5.50;99.90;;;;;;5079230;28;20950;-56
2021/01/14 02:05:24;;;;;;;3.60;3.30;;;5.50;99.90;;;;;;5078304;28;20170;-54
2021/01/14 02:07:55;;;;;;;3.23;2.90;;;5.60;99.90;;;;;;5078114;28;20177;-55
2021/01/14 02:10:32;;;;;;;4.03;3.57;;;5.60;99.90;;;;;;5079174;28;20285;-55
2021/01/14 02:13:04;;;;;;;5.47;3.23;;;5.60;99.90;;;;;;5078138;28;20392;-55
2021/01/14 02:15:31;;;;;;;3.10;2.90;;;5.50;99.90;;;;;;5078978;28;20399;-57
2021/01/14 02:17:57;;;;;;;3.20;3.00;;;5.40;99.90;;;;;;5078285;28;20451;-56
2021/01/14 02:20:23;;;;;;;3.40;3.10;;;5.30;99.90;;;;;;5073297;28;20436;-57
2021/01/14 02:23:22;;;;;;;3.27;2.97;;;5.20;99.90;;;;;;5036874;28;20186;-56
2021/01/14 02:26:10;;;;;;;2.73;2.53;;;5.30;99.90;;;;;;5037277;28;20411;-53
2021/01/14 02:28:38;;;;;;;3.13;2.93;;;5.10;99.90;;;;;;5038260;28;20390;-57
2021/01/14 02:31:05;;;;;;;3.40;3.10;;;5.10;99.90;;;;;;5038150;28;20433;-57
2021/01/14 02:33:31;;;;;;;3.23;2.93;;;5.10;99.90;;;;;;5036342;28;20973;-56
2021/01/14 02:35:56;;;;;;;3.43;3.13;;;5.20;99.90;;;;;;5037067;28;20414;-55
2021/01/14 02:38:22;;;;;;;3.47;3.17;;;5.20;99.90;;;;;;5037176;28;20214;-57
2021/01/14 02:40:48;;;;;;;5.40;3.30;;;5.20;99.90;;;;;;5037424;28;20274;-56
2021/01/14 02:43:13;;;;;;;2.80;2.60;;;5.00;99.90;;;;;;5037623;28;20236;-57
2021/01/14 02:45:39;;;;;;;3.73;3.43;;;5.10;99.90;;;;;;5036802;28;20172;-57
2021/01/14 02:48:05;;;;;;;3.73;3.37;;;5.10;99.90;;;;;;5036382;28;20172;-56
2021/01/14 02:50:37;;;;;;;3.40;3.10;;;5.20;99.90;;;;;;5031418;28;20741;-57
2021/01/14 02:53:03;;;;;;;4.30;3.90;;;5.40;99.90;;;;;;5056328;28;20431;-56
2021/01/14 02:55:29;;;;;;;2.90;2.70;;;5.30;99.90;;;;;;5056681;28;20480;-56
2021/01/14 02:57:55;;;;;;;3.50;3.20;;;5.30;99.90;;;;;;5056483;28;20464;-55
2021/01/14 03:00:21;;;;;;;3.93;3.53;;;5.10;99.90;;;;;;5056471;28;20463;-55
2021/01/14 03:02:46;;;;;;;4.07;2.87;;;5.10;99.90;;;;;;5051761;28;20171;-54
2021/01/14 03:05:12;;;;;;;4.53;3.10;;;5.10;99.90;;;;;;5036524;28;20740;-55
2021/01/14 03:07:38;;;;;;;3.40;3.10;;;5.20;99.90;;;;;;5036774;28;20167;-55
2021/01/14 03:10:04;;;;;;;3.50;3.20;;;5.20;99.90;;;;;;5036097;28;20183;-54
2021/01/14 03:12:30;;;;;;;3.30;3.00;;;5.20;99.90;;;;;;5036345;28;20163;-57
2021/01/14 03:14:55;;;;;;;3.57;3.27;;;5.10;99.90;;;;;;5036703;28;20903;-55
2021/01/14 03:17:21;;;;;;;3.17;2.87;;;5.00;99.90;;;;;;5036882;28;20194;-56
2021/01/14 03:19:46;;;;;;;3.60;3.30;;;5.00;99.90;;;;;;5036297;28;20248;-54
2021/01/14 03:22:12;;;;;;;3.47;3.17;;;5.10;99.90;;;;;;5037040;28;20274;-55
2021/01/14 03:24:39;;;;;;;3.47;2.93;;;5.10;99.90;;;;;;5036997;28;20174;-57
2021/01/14 03:27:08;;;;;;;3.60;3.20;;;5.00;99.90;;;;;;5036739;28;20255;-57
2021/01/14 03:29:33;;;;;;;3.20;2.90;;;5.00;99.90;;;;;;5037039;28;20442;-54
2021/01/14 03:32:03;;;;;;;3.37;3.07;;;4.90;99.90;;;;;;5036848;28;20397;-57
2021/01/14 03:34:29;;;;;;;3.50;3.20;;;4.80;99.90;;;;;;5037318;28;20237;-57
2021/01/14 03:36:58;;;;;;;4.07;3.70;;;4.90;99.90;;;;;;5037145;28;20450;-57
2021/01/14 03:39:28;;;;;;;3.53;3.23;;;5.00;99.90;;;;;;5035975;28;20497;-56
2021/01/14 03:41:54;;;;;;;3.30;3.00;;;4.90;99.90;;;;;;5036693;28;20485;-54
2021/01/14 03:44:20;;;;;;;3.30;3.00;;;4.90;99.90;;;;;;5036641;28;20406;-56
2021/01/14 03:46:47;;;;;;;5.70;3.87;;;4.90;99.90;;;;;;5035781;28;20768;-55
2021/01/14 03:49:14;;;;;;;3.93;3.53;;;4.80;99.90;;;;;;5046269;28;20451;-56
2021/01/14 03:51:40;;;;;;;3.93;3.63;;;4.80;99.90;;;;;;5035399;28;20521;-56
2021/01/14 03:54:06;;;;;;;4.23;3.53;;;4.80;99.90;;;;;;5037709;28;20444;-54
2021/01/14 03:56:38;;;;;;;5.63;3.97;;;4.80;99.90;;;;;;5070876;28;20452;-57
2021/01/14 03:59:05;;;;;;;5.10;3.97;;;4.70;99.90;;;;;;5075086;28;20404;-56
2021/01/14 04:01:31;;;;;;;4.77;3.50;;;4.70;99.90;;;;;;5075040;28;20478;-54
2021/01/14 04:03:57;;;;;;;4.30;3.90;;;4.80;99.90;;;;;;5046582;28;20421;-55
2021/01/14 04:06:30;;;;;;;3.73;3.30;;;4.70;99.90;;;;;;5035989;28;20402;-54
2021/01/14 04:08:57;;;;;;;3.67;3.13;;;4.60;99.90;;;;;;5034469;28;20682;-57
2021/01/14 04:11:22;;;;;;;6.77;4.90;;;4.60;99.90;;;;;;5034881;28;20532;-53
2021/01/14 04:13:48;;;;;;;6.43;4.17;;;4.40;99.90;;;;;;5035687;28;20789;-56
2021/01/14 04:16:13;;;;;;;4.17;3.77;;;4.40;99.90;;;;;;5035182;28;20254;-54
2021/01/14 04:18:39;;;;;;;4.47;3.77;;;4.40;99.90;;;;;;5034742;28;20198;-56
2021/01/14 04:21:05;;;;;;;3.90;3.10;;;4.40;99.90;;;;;;5034429;28;20183;-54
2021/01/14 04:23:30;;;;;;;6.13;3.90;;;4.40;99.90;;;;;;5034201;28;20705;-54
2021/01/14 04:25:56;;;;;;;5.03;4.53;;;4.40;99.90;;;;;;5034534;28;20194;-53
2021/01/14 04:28:22;;;;;;;5.83;4.30;;;4.50;99.90;;;;;;5034696;28;20168;-54
2021/01/14 04:30:47;;;;;;;3.90;3.50;;;4.50;99.90;;;;;;5035283;28;20191;-56
2021/01/14 04:33:13;;;;;;;6.07;4.10;;;4.60;99.90;;;;;;5034470;28;20179;-56
2021/01/14 04:35:48;;;;;;;5.40;4.47;;;4.70;99.90;;;;;;5034443;28;20531;-54
2021/01/14 04:38:15;;;;;;;6.93;5.00;;;4.60;99.90;;;;;;5034914;28;20187;-54
2021/01/14 04:40:41;;;;;;;5.90;4.70;;;4.60;99.90;;;;;;5034969;28;20429;-55
2021/01/14 04:43:10;;;;;;;5.20;3.90;;;4.50;99.90;;;;;;5035507;28;20441;-56
2021/01/14 04:45:38;;;;;;;5.13;3.87;;;4.40;99.90;;;;;;5038650;28;20406;-53
2021/01/14 04:48:04;;;;;;;5.53;4.90;;;4.40;99.90;;;;;;5038422;28;20427;-53
2021/01/14 04:50:31;;;;;;;7.47;4.47;;;4.40;99.90;;;;;;5037903;28;20442;-57
2021/01/14 04:52:59;;;;;;;4.43;4.03;;;4.50;99.90;;;;;;5038579;28;20440;-53
2021/01/14 04:55:28;;;;;;;4.40;4.00;;;4.40;99.90;;;;;;5037807;28;20406;-55
2021/01/14 04:57:55;;;;;;;5.70;4.70;;;4.40;99.90;;;;;;5037460;28;20885;-54
2021/01/14 05:00:25;;;;;;;4.70;3.90;;;4.40;99.90;;;;;;5037682;28;20434;-55
2021/01/14 05:03:01;;;;;;;5.00;4.50;;;4.50;99.90;;;;;;5038309;28;20414;-55
2021/01/14 05:05:31;;;;;;;6.07;4.17;;;4.50;99.90;;;;;;5037329;28;20401;-57
2021/01/14 05:08:07;;;;;;;6.27;4.20;;;4.60;99.90;;;;;;5037269;28;20529;-53
2021/01/14 05:10:35;;;;;;;5.27;4.77;;;4.60;99.90;;;;;;5037869;28;20430;-54
2021/01/14 05:13:01;;;;;;;5.57;4.33;;;4.50;99.90;;;;;;5039357;28;20469;-52
2021/01/14 05:15:27;;;;;;;4.83;3.80;;;4.50;99.90;;;;;;5039852;28;20418;-55
2021/01/14 05:17:57;;;;;;;5.10;3.80;;;4.40;99.90;;;;;;5039583;28;20817;-55
2021/01/14 05:20:24;;;;;;;5.30;4.20;;;4.40;99.90;;;;;;5039519;28;20418;-58
2021/01/14 05:22:58;;;;;;;4.23;3.83;;;4.50;99.90;;;;;;5039039;28;20976;-56
2021/01/14 05:25:24;;;;;;;5.33;4.50;;;4.50;99.90;;;;;;5039091;28;20390;-56
2021/01/14 05:27:50;;;;;;;4.77;4.17;;;4.50;99.90;;;;;;5038911;28;20433;-57
2021/01/14 05:30:16;;;;;;;6.00;4.80;;;4.40;99.90;;;;;;5038838;28;20433;-54
2021/01/14 05:32:44;;;;;;;4.90;4.10;;;4.40;99.90;;;;;;5038445;28;20187;-54
2021/01/14 05:35:12;;;;;;;5.53;5.03;;;4.20;99.90;;;;;;5037939;28;20414;-55
2021/01/14 05:37:42;;;;;;;7.63;5.03;;;4.30;99.90;;;;;;5037790;28;20453;-57
2021/01/14 05:40:12;;;;;;;8.40;5.00;;;4.40;99.90;;;;;;5038069;28;20430;-57
2021/01/14 05:42:39;;;;;;;5.63;4.80;;;4.50;99.90;;;;;;5037823;28;20912;-56
2021/01/14 05:45:21;;;;;;;6.23;4.80;;;4.30;99.90;;;;;;5038499;28;20406;-56
2021/01/14 05:47:47;;;;;;;5.77;4.50;;;4.40;99.90;;;;;;5038353;28;20401;-53
2021/01/14 05:50:12;;;;;;;4.20;3.77;;;4.50;99.90;;;;;;5037874;28;20434;-55
2021/01/14 05:52:39;;;;;;;4.23;3.83;;;4.50;99.90;;;;;;5038113;28;20644;-54
2021/01/14 05:55:11;;;;;;;7.60;5.43;;;4.50;99.90;;;;;;5038274;28;20163;-54
2021/01/14 05:57:40;;;;;;;7.13;4.83;;;4.60;99.90;;;;;;5039636;28;20993;-56
2021/01/14 06:00:15;;;;;;;5.50;4.23;;;4.70;99.90;;;;;;5060075;28;20429;-56
2021/01/14 06:02:41;;;;;;;8.27;5.43;;;4.60;99.90;;;;;;5055017;28;20775;-57
2021/01/14 06:05:32;;;;;;;6.50;5.30;;;4.70;99.90;;;;;;5038078;28;20422;-56
2021/01/14 06:08:01;;;;;;;6.20;5.60;;;4.60;99.90;;;;;;5038516;28;20413;-57
2021/01/14 06:10:30;;;;;;;5.17;4.67;;;4.40;99.90;;;;;;5038411;28;20785;-56
2021/01/14 06:12:56;;;;;;;7.00;6.20;;;4.40;99.90;;;;;;5038682;28;20398;-56
2021/01/14 06:15:21;;;;;;;5.87;5.27;;;4.40;99.90;;;;;;5039593;28;20758;-57
2021/01/14 06:17:48;;;;;;;6.70;5.70;;;4.40;99.90;;;;;;5038779;28;20199;-57
2021/01/14 06:20:14;;;;;;;5.50;4.70;;;4.30;99.90;;;;;;5039454;28;20192;-57
2021/01/14 06:22:43;;;;;;;5.33;4.83;;;4.30;99.90;;;;;;5040934;28;20409;-57
2021/01/14 06:25:09;;;;;;;6.63;6.03;;;4.20;99.90;;;;;;5039610;28;20428;-57
2021/01/14 06:27:34;;;;;;;6.30;5.10;;;4.20;99.90;;;;;;5038633;28;21017;-58
2021/01/14 06:30:08;;;;;;;6.23;5.13;;;4.20;99.90;;;;;;5036784;28;20512;-57
2021/01/14 06:32:35;;;;;;;8.07;5.80;;;4.20;99.90;;;;;;5037802;28;20179;-55
2021/01/14 06:35:02;;;;;;;8.03;6.27;;;4.10;99.90;;;;;;5037689;28;20409;-57
2021/01/14 06:37:28;;;;;;;5.97;5.47;;;4.20;99.90;;;;;;5036754;28;20458;-56
2021/01/14 06:39:59;;;;;;;7.03;6.23;;;4.20;99.90;;;;;;5036530;28;20419;-55
2021/01/14 06:42:30;;;;;;;7.17;5.90;;;4.30;99.90;;;;;;5047703;28;20498;-55
2021/01/14 06:45:06;;;;;;;8.10;7.00;;;4.30;99.90;;;;;;5037162;28;21033;-58
2021/01/14 06:47:32;;;;;;;6.40;5.80;;;4.40;99.90;;;;;;5037135;28;20398;-57
2021/01/14 06:50:23;;;;;;;6.40;5.60;;;4.50;99.90;;;;;;5037101;28;20425;-57
2021/01/14 06:52:51;;;;;;;9.20;5.77;;;4.20;99.90;;;;;;5037757;28;20398;-56
2021/01/14 06:55:22;;;;;;;6.83;5.83;;;4.20;99.90;;;;;;5036918;28;20402;-56
2021/01/14 06:58:06;;;;;;;6.67;6.07;;;4.20;99.90;;;;;;5035750;28;20988;-57
2021/01/14 07:00:34;;;;;;;7.40;6.67;;;4.10;99.90;;;;;;5035081;28;20430;-57
2021/01/14 07:05:52;;;;;;;8.50;7.33;;;4.20;99.90;;;;;;5035088;28;20395;-56
2021/01/14 07:08:32;;;;;;;7.67;6.13;;;4.30;99.90;;;;;;5037253;28;20946;-57
2021/01/14 07:11:11;;;;;;;6.20;5.60;;;4.10;99.90;;;;;;5036545;28;20417;-56
2021/01/14 07:13:47;;;;;;;8.53;7.50;;;4.10;99.90;;;;;;5036495;28;20393;-57
2021/01/14 07:16:15;;;;;;;7.30;6.60;;;4.00;99.90;;;;;;5036597;28;20390;-57
2021/01/14 07:18:41;;;;;;;6.57;5.90;;;3.90;99.90;;;;;;5036717;28;20437;-57
2021/01/14 07:21:35;;;;;;;6.80;6.20;;;3.90;99.90;;;;;;5036671;28;20426;-57
2021/01/14 07:24:25;;;;;;;9.67;6.33;;;3.90;99.90;;;;;;5035601;28;20394;-55
2021/01/14 07:26:57;;;;;;;8.80;7.97;;;4.10;99.90;;;;;;5036045;28;20409;-55
2021/01/14 07:29:24;;;;;;;7.67;6.97;;;4.10;99.90;;;;;;5036186;28;20382;-56
2021/01/14 07:31:52;;;;;;;7.20;6.50;;;4.20;99.90;;;;;;5037179;28;20413;-55
2021/01/14 07:34:44;;;;;;;7.57;6.40;;;4.30;99.90;;;;;;5036401;28;20510;-55
2021/01/14 07:37:14;;;;;;;6.83;6.17;;;4.10;99.90;;;;;;5036965;28;20460;-55
2021/01/14 07:39:46;;;;;;;12.90;7.07;;;4.20;99.90;;;;;;5036189;28;20402;-57
2021/01/14 07:42:34;;;;;;;6.80;6.20;;;4.20;99.90;;;;;;5035803;28;20505;-57
2021/01/14 07:45:01;;;;;;;6.83;6.17;;;4.10;99.90;;;;;;5036427;28;20911;-57
2021/01/14 07:47:32;;;;;;;6.43;5.70;;;4.20;99.90;;;;;;5036373;28;20421;-57
2021/01/14 07:49:59;;;;;;;6.70;6.10;;;4.50;99.90;;;;;;5037183;28;20460;-57
2021/01/14 07:52:30;;;;;;;7.03;6.20;;;4.40;99.90;;;;;;5037443;28;20418;-55
2021/01/14 07:54:57;;;;;;;7.37;6.53;;;4.20;99.90;;;;;;5038084;28;20417;-56
2021/01/14 07:57:27;;;;;;;11.60;6.73;;;4.30;99.90;;;;;;5038408;28;20454;-55
2021/01/14 07:59:58;;;;;;;6.73;6.13;;;4.40;99.90;;;;;;5038354;28;20452;-58
2021/01/14 08:02:24;;;;;;;5.87;5.37;;;4.40;99.90;;;;;;5038536;28;20398;-57
2021/01/14 08:04:53;;;;;;;8.77;5.87;;;4.30;99.90;;;;;;5037412;28;20423;-57
2021/01/14 08:07:26;;;;;;;7.33;6.60;;;4.30;99.90;;;;;;5036626;28;20417;-58
2021/01/14 08:09:52;;;;;;;7.60;6.80;;;4.30;99.90;;;;;;5061772;28;20481;-59
2021/01/14 08:12:22;;;;;;;7.60;6.80;;;4.30;99.90;;;;;;5074067;28;20417;-59
2021/01/14 08:14:48;;;;;;;7.77;6.97;;;4.50;99.90;;;;;;5073980;28;20401;-60
2021/01/14 08:17:27;;;;;;;8.83;6.63;;;4.50;99.90;;;;;;5074696;28;20601;-59
2021/01/14 08:19:54;;;;;;;8.17;6.77;;;4.60;99.90;;;;;;5078391;28;20507;-57
2021/01/14 08:22:21;;;;;;;7.87;7.07;;;4.50;99.90;;;;;;5078877;28;20411;-59
2021/01/14 08:24:57;;;;;;;8.73;6.60;;;4.40;99.90;;;;;;5076724;28;20409;-61
2021/01/14 08:27:36;;;;;;;6.73;5.97;;;4.50;99.90;;;;;;5077172;28;20744;-61
2021/01/14 08:30:06;;;;;;;8.67;7.00;;;4.70;99.90;;;;;;5076963;28;20435;-60
2021/01/14 08:32:45;;;;;;;9.70;7.60;;;4.70;99.90;;;;;;5071678;28;20553;-60
2021/01/14 08:35:19;;;;;;;9.13;6.90;;;4.70;99.90;;;;;;5036729;28;20394;-60
2021/01/14 08:37:49;;;;;;;8.20;6.87;;;4.70;99.90;;;;;;5036705;28;20452;-60
2021/01/14 08:40:23;;;;;;;8.83;7.40;;;4.50;99.90;;;;;;5036511;28;20430;-58
2021/01/14 08:43:09;;;;;;;8.30;6.63;;;4.60;99.90;;;;;;5036070;28;20541;-60
2021/01/14 08:45:42;;;;;;;10.13;7.13;;;4.50;99.90;;;;;;5036827;28;20382;-60
2021/01/14 08:48:24;;;;;;;7.87;6.70;;;4.60;99.90;;;;;;5036540;28;20747;-60
2021/01/14 08:51:00;;;;;;;8.37;6.57;;;4.60;99.90;;;;;;5036249;28;20469;-59
2021/01/14 08:53:31;;;;;;;9.37;7.10;;;4.70;99.90;;;;;;5036004;28;20777;-60
2021/01/14 08:56:14;;;;;;;9.70;7.70;;;4.70;99.90;;;;;;5036173;28;20402;-59
2021/01/14 08:58:45;;;;;;;7.70;6.90;;;4.70;99.90;;;;;;5036901;28;20382;-59
2021/01/14 09:01:18;;;;;;;8.20;6.70;;;4.60;99.90;;;;;;5036399;28;20931;-60
2021/01/14 09:03:46;;;;;;;8.13;7.37;;;4.70;99.90;;;;;;5036230;28;20409;-60
2021/01/14 09:06:11;;;;;;;9.30;6.87;;;4.50;99.90;;;;;;5036241;28;20405;-60
2021/01/14 09:08:39;;;;;;;11.23;7.10;;;4.70;99.90;;;;;;5036244;28;20394;-60
2021/01/14 09:11:04;;;;;;;7.73;6.93;;;4.50;99.90;;;;;;5035740;28;20228;-61
2021/01/14 09:13:31;;;;;;;7.23;6.53;;;4.50;99.90;;;;;;5034564;28;20508;-60
2021/01/14 09:16:06;;;;;;;10.40;7.10;;;4.60;99.90;;;;;;5036101;28;20179;-60
2021/01/14 09:18:40;;;;;;;7.33;6.63;;;4.60;99.90;;;;;;5036367;28;20437;-61
2021/01/14 09:21:06;;;;;;;9.93;7.83;;;4.70;99.90;;;;;;5035657;28;20414;-61
2021/01/14 09:23:34;;;;;;;10.73;8.50;;;4.70;99.90;;;;;;5035716;28;20420;-62
2021/01/14 09:26:15;;;;;;;9.97;8.10;;;4.80;99.90;;;;;;5035904;28;20552;-61
2021/01/14 09:28:46;;;;;;;9.40;8.10;;;4.70;99.90;;;;;;5035656;28;20691;-61
2021/01/14 09:31:12;;;;;;;9.17;7.90;;;4.70;99.90;;;;;;5035667;28;20422;-62
2021/01/14 09:33:40;;;;;;;8.50;7.23;;;4.80;99.90;;;;;;5040504;28;20939;-61
2021/01/14 09:36:11;;;;;;;8.40;7.50;;;4.60;99.90;;;;;;5055460;28;20182;-61
2021/01/14 09:38:47;;;;;;;9.03;7.30;;;4.70;99.90;;;;;;5055346;28;20393;-58
2021/01/14 09:41:23;;;;;;;8.93;8.03;;;4.50;99.90;;;;;;5035180;28;20818;-60
2021/01/14 09:43:50;;;;;;;7.73;6.93;;;4.40;99.90;;;;;;5035527;28;20382;-60
2021/01/14 09:46:15;;;;;;;10.00;8.00;;;4.50;99.90;;;;;;5035698;28;20394;-60
2021/01/14 09:48:42;;;;;;;9.23;7.53;;;4.40;99.90;;;;;;5035563;28;20452;-60
2021/01/14 09:51:16;;;;;;;9.77;7.33;;;4.50;99.90;;;;;;5036827;28;20242;-61
2021/01/14 09:53:48;;;;;;;7.20;6.47;;;4.50;99.90;;;;;;5047476;28;20401;-59
2021/01/14 09:56:25;;;;;;;7.57;6.77;;;4.30;99.90;;;;;;5034943;28;20417;-61
2021/01/14 09:58:56;;;;;;;9.07;6.73;;;4.50;99.90;;;;;;5035283;28;20387;-59
2021/01/14 10:01:27;;;;;;;7.60;6.30;;;4.60;99.90;;;;;;5035178;28;20432;-59
2021/01/14 10:04:15;;;;;;;10.80;6.77;;;4.80;99.90;;;;;;5035338;28;20482;-59
2021/01/14 10:06:44;;;;;;;9.37;7.20;;;4.70;99.90;;;;;;5035311;28;20817;-60
2021/01/14 10:09:11;;;;;;;7.10;5.90;;;4.50;99.90;;;;;;5035356;28;20405;-60
2021/01/14 10:11:37;;;;;;;7.00;6.30;;;4.50;99.90;;;;;;5035034;28;20426;-60
2021/01/14 10:14:03;;;;;;;7.07;5.33;;;4.50;99.90;;;;;;5034770;28;20459;-60
2021/01/14 10:16:29;;;;;;;8.47;6.20;;;4.60;99.90;;;;;;5051532;28;20417;-60
2021/01/14 10:19:21;;;;;;;6.73;6.10;;;4.50;99.90;;;;;;5055047;28;20766;-61
2021/01/14 10:21:48;;;;;;;6.83;6.20;;;4.40;99.90;;;;;;5054825;28;20917;-60
2021/01/14 10:24:32;;;;;;;7.40;6.10;;;4.40;99.90;;;;;;5054555;28;20443;-60
2021/01/14 10:27:15;;;;;;;7.07;6.40;;;4.60;99.90;;;;;;5055717;28;20412;-56
2021/01/14 10:29:41;;;;;;;10.57;6.53;;;4.50;99.90;;;;;;5058535;28;20832;-58
2021/01/14 10:32:17;;;;;;;7.30;5.80;;;4.30;99.90;;;;;;5058013;28;20548;-58
2021/01/14 10:34:47;;;;;;;7.53;5.43;;;4.30;99.90;;;;;;5057956;28;20480;-57
2021/01/14 10:37:29;;;;;;;8.00;5.70;;;4.40;99.90;;;;;;5057167;28;20436;-56
2021/01/14 10:39:56;;;;;;;6.90;5.87;;;4.50;99.90;;;;;;5056805;28;20429;-57
2021/01/14 10:42:30;;;;;;;6.70;6.10;;;4.50;99.90;;;;;;5056086;28;20443;-57
2021/01/14 10:45:02;;;;;;;6.37;5.67;;;4.70;99.90;;;;;;5057116;28;20396;-58
2021/01/14 10:47:28;;;;;;;9.60;6.00;;;4.80;99.90;;;;;;5056572;28;20886;-57
2021/01/14 10:49:54;;;;;;;9.83;5.57;;;4.60;99.90;;;;;;5056703;28;20424;-56
2021/01/14 10:52:19;;;;;;;9.00;6.07;;;4.50;99.90;;;;;;5056919;28;20182;-54
2021/01/14 10:55:01;;;;;;;8.27;6.80;;;4.60;99.90;;;;;;5039616;28;20233;-54
2021/01/14 10:57:49;;;;;;;9.63;7.40;;;4.60;99.90;;;;;;5035424;28;20260;-56
2021/01/14 11:00:23;;;;;;;11.03;6.30;;;4.50;99.90;;;;;;5036166;28;20414;-54
2021/01/14 11:03:20;;;;;;;7.73;5.80;;;4.60;99.90;;;;;;5035946;28;20477;-59
2021/01/14 11:05:47;;;;;;;6.80;5.97;;;4.70;99.90;;;;;;5034559;28;20746;-60
2021/01/14 11:08:14;;;;;;;10.10;6.13;;;4.50;99.90;;;;;;5034348;28;20827;-60
2021/01/14 11:10:44;;;;;;;9.43;6.30;;;4.50;99.90;;;;;;5033998;28;20458;-60
2021/01/14 11:13:12;;;;;;;8.23;6.70;;;4.60;99.90;;;;;;5034173;28;20382;-59
2021/01/14 11:15:38;;;;;;;7.13;6.43;;;4.50;99.90;;;;;;5034788;28;20441;-59
2021/01/14 11:18:06;;;;;;;7.13;6.43;;;4.40;99.90;;;;;;5035012;28;20582;-59
2021/01/14 11:20:32;;;;;;;7.57;6.87;;;4.50;99.90;;;;;;5034609;28;20187;-60
2021/01/14 11:22:59;;;;;;;10.53;7.80;;;4.50;99.90;;;;;;5034823;28;20406;-59
2021/01/14 11:25:25;;;;;;;9.83;7.40;;;4.50;99.90;;;;;;5034160;28;20464;-58
2021/01/14 11:27:52;;;;;;;8.17;7.37;;;4.40;99.90;;;;;;5036854;28;20410;-60
2021/01/14 11:30:19;;;;;;;7.93;6.90;;;4.40;99.90;;;;;;5053729;28;20460;-60
2021/01/14 11:32:44;;;;;;;10.20;8.03;;;4.30;99.90;;;;;;5053535;28;20413;-62
2021/01/14 11:35:10;;;;;;;7.13;6.43;;;4.20;99.90;;;;;;5053722;28;20401;-60
2021/01/14 11:37:36;;;;;;;8.50;7.60;;;4.40;99.90;;;;;;5053824;28;20216;-58
2021/01/14 11:40:02;;;;;;;10.27;7.80;;;4.50;99.90;;;;;;5053379;28;20949;-60
2021/01/14 11:42:28;;;;;;;7.77;6.57;;;4.60;99.90;;;;;;5053081;28;20194;-61
2021/01/14 11:44:54;;;;;;;8.63;7.57;;;4.50;99.90;;;;;;5053097;28;20405;-61
2021/01/14 11:47:20;;;;;;;9.17;7.63;;;4.50;99.90;;;;;;5053663;28;20409;-61
2021/01/14 11:49:46;;;;;;;7.00;6.20;;;4.60;99.90;;;;;;5053569;28;20482;-61
2021/01/14 11:52:11;;;;;;;9.53;7.30;;;4.60;99.90;;;;;;5052989;28;20928;-61
2021/01/14 11:54:37;;;;;;;11.03;7.97;;;4.80;99.90;;;;;;5037537;28;20187;-60
2021/01/14 11:57:03;;;;;;;8.43;7.63;;;4.80;99.90;;;;;;5032915;28;20562;-58
2021/01/14 11:59:28;;;;;;;10.13;6.77;;;4.70;99.90;;;;;;5033146;28;20174;-60
2021/01/14 12:01:57;;;;;;;9.40;8.20;;;4.90;99.90;;;;;;5033561;28;20530;-60
2021/01/14 12:04:23;;;;;;;9.67;7.70;;;5.10;99.90;;;;;;5033479;28;20167;-61
2021/01/14 12:06:53;;;;;;;7.60;6.80;;;5.20;99.90;;;;;;5033493;28;20398;-61
2021/01/14 12:09:18;;;;;;;7.87;6.63;;;5.00;99.90;;;;;;5033359;28;20410;-63
2021/01/14 12:11:44;;;;;;;8.77;6.33;;;4.90;99.90;;;;;;5055260;28;20787;-61
2021/01/14 12:14:10;;;;;;;5.83;5.27;;;5.10;99.90;;;;;;5052016;28;20492;-61
2021/01/14 12:16:35;;;;;;;7.73;6.37;;;5.10;99.90;;;;;;5052982;28;20194;-60
2021/01/14 12:19:01;;;;;;;7.23;5.80;;;5.00;99.90;;;;;;5053272;28;20253;-61
2021/01/14 12:21:26;;;;;;;7.27;5.43;;;5.20;99.90;;;;;;5053061;28;20218;-61
2021/01/14 12:23:52;;;;;;;6.17;5.57;;;5.50;99.90;;;;;;5043579;28;20568;-60
2021/01/14 12:26:19;;;;;;;6.40;5.80;;;5.60;99.90;;;;;;5036565;28;20181;-61
2021/01/14 12:28:45;;;;;;;6.97;6.00;;;5.50;99.90;;;;;;5046922;28;20172;-61
2021/01/14 12:31:11;;;;;;;12.63;7.07;;;5.80;99.90;;;;;;5032752;28;20421;-61
2021/01/14 12:33:37;;;;;;;10.70;6.97;;;5.60;99.90;;;;;;5049485;28;20401;-62
2021/01/14 12:36:03;;;;;;;5.77;5.20;;;5.60;99.90;;;;;;5050373;28;20189;-61
2021/01/14 12:38:28;;;;;;;6.87;5.80;;;5.30;99.90;;;;;;5032564;28;20195;-61
2021/01/14 12:40:54;;;;;;;12.07;6.03;;;5.40;99.90;;;;;;5033715;28;20418;-61
2021/01/14 12:43:20;;;;;;;7.70;6.47;;;5.30;99.90;;;;;;5034012;28;20281;-60
2021/01/14 12:45:45;;;;;;;11.00;6.47;;;5.10;99.90;;;;;;5050531;28;20175;-61
2021/01/14 12:48:11;;;;;;;9.33;5.70;;;5.10;99.90;;;;;;5053145;28;20652;-60
2021/01/14 12:50:41;;;;;;;11.03;6.70;;;5.00;99.90;;;;;;5039819;28;20273;-61
2021/01/14 12:53:07;;;;;;;7.57;6.13;;;5.00;99.90;;;;;;5032612;28;20160;-61
2021/01/14 12:55:32;;;;;;;8.47;5.43;;;5.20;99.90;;;;;;5033295;28;20409;-61
2021/01/14 12:57:58;;;;;;;9.60;6.30;;;5.40;99.90;;;;;;5031797;28;20199;-59
2021/01/14 13:00:23;;;;;;;7.37;6.13;;;5.30;99.90;;;;;;5032947;28;20203;-59
2021/01/14 13:02:49;;;;;;;6.37;5.77;;;5.50;99.90;;;;;;5032694;28;20601;-60
2021/01/14 13:05:15;;;;;;;8.67;6.73;;;5.70;99.90;;;;;;5035542;28;20592;-61
2021/01/14 13:07:40;;;;;;;12.00;6.50;;;5.60;99.90;;;;;;5036209;28;20167;-59
2021/01/14 13:10:06;;;;;;;7.67;6.60;;;5.70;99.90;;;;;;5036134;28;20699;-60